createdAt,value
2018-08-30T12:57:21.311Z,58.30
2018-08-30T12:59:49.476Z,58.70
2018-08-30T13:02:17.600Z,59.20
2018-08-30T13:04:45.744Z,59.50
2018-08-30T13:07:13.773Z,59.50
2018-08-30T13:09:41.998Z,59.50
2018-08-30T13:12:10.075Z,59.40
2018-08-30T13:14:38.127Z,59.10
2018-08-30T13:17:06.043Z,58.90
2018-08-30T13:19:34.536Z,58.80
2018-08-30T13:22:02.709Z,58.70
2018-08-30T13:24:30.702Z,58.70
2018-08-30T13:26:58.734Z,58.80
2018-08-30T13:29:27.446Z,59.00
2018-08-30T13:31:55.395Z,59.30
2018-08-30T13:34:23.742Z,59.40
2018-08-30T13:36:51.908Z,59.40
2018-08-30T13:39:19.946Z,59.60
2018-08-30T13:41:47.991Z,59.70
2018-08-30T13:44:15.917Z,59.60
2018-08-30T13:46:44.338Z,59.20
2018-08-30T13:49:12.255Z,58.70
2018-08-30T13:51:40.556Z,58.50
2018-08-30T13:54:08.929Z,58.00
2018-08-30T13:56:37.924Z,57.50
2018-08-30T13:59:06.034Z,57.10
2018-08-30T14:01:34.256Z,56.80
2018-08-30T14:04:02.142Z,56.60
2018-08-30T14:06:30.163Z,56.20
2018-08-30T14:08:58.109Z,55.60
2018-08-30T14:11:29.537Z,55.20
2018-08-30T14:13:57.577Z,55.00
2018-08-30T14:16:25.444Z,55.20
2018-08-30T14:18:53.533Z,55.30
2018-08-30T14:21:21.695Z,55.50
2018-08-30T14:23:49.757Z,55.80
2018-08-30T14:26:17.849Z,56.40
2018-08-30T14:28:45.952Z,56.60
2018-08-30T14:31:14.071Z,56.30
2018-08-30T14:33:42.408Z,56.10
2018-08-30T14:36:10.783Z,56.00
2018-08-30T14:38:39.216Z,56.10
2018-08-30T14:41:07.384Z,56.00
2018-08-30T14:43:35.370Z,55.90
2018-08-30T14:46:03.760Z,56.00
2018-08-30T14:48:31.799Z,56.30
2018-08-30T14:50:59.896Z,56.60
2018-08-30T14:53:28.232Z,56.90
2018-08-30T14:55:56.588Z,57.20
2018-08-30T14:58:24.684Z,57.40
2018-08-30T15:00:52.852Z,57.60
2018-08-30T15:03:21.048Z,57.80
2018-08-30T15:05:49.243Z,57.60
2018-08-30T15:08:17.269Z,57.60
2018-08-30T15:10:45.372Z,57.70
2018-08-30T15:13:13.663Z,57.70
2018-08-30T15:15:41.751Z,57.60
2018-08-30T15:18:09.870Z,57.60
2018-08-30T15:20:37.965Z,57.50
2018-08-30T15:23:06.237Z,57.10
2018-08-30T15:25:34.228Z,56.70
2018-08-30T15:28:02.320Z,56.40
2018-08-30T15:30:30.411Z,56.30
2018-08-30T15:33:05.471Z,55.70
2018-08-30T15:35:35.183Z,55.40
2018-08-30T15:38:03.299Z,55.10
2018-08-30T15:40:32.496Z,54.60
2018-08-30T15:43:00.588Z,54.10
2018-08-30T15:45:28.689Z,53.70
2018-08-30T15:47:56.946Z,53.70
2018-08-30T15:50:25.040Z,53.70
2018-08-30T15:52:53.140Z,54.00
2018-08-30T15:55:21.236Z,54.30
2018-08-30T15:57:49.564Z,54.30
2018-08-30T16:00:17.759Z,54.20
2018-08-30T16:02:46.363Z,54.10
2018-08-30T16:05:14.594Z,54.00
2018-08-30T16:07:43.258Z,54.00
2018-08-30T16:10:11.796Z,54.10
2018-08-30T16:12:39.916Z,54.10
2018-08-30T16:15:08.057Z,54.00
2018-08-30T16:17:36.160Z,53.80
2018-08-30T16:20:04.567Z,53.50
2018-08-30T16:23:17.038Z,53.40
2018-08-30T16:25:45.108Z,53.50
2018-08-30T16:28:13.270Z,53.50
2018-08-30T16:30:41.571Z,53.40
2018-08-30T16:33:09.451Z,53.60
2018-08-30T16:35:37.538Z,53.90
2018-08-30T16:38:05.708Z,53.90
2018-08-30T16:40:33.820Z,53.90
2018-08-30T16:43:01.912Z,53.70
2018-08-30T16:45:30.049Z,53.60
2018-08-30T16:47:58.182Z,53.40
2018-08-30T16:50:26.327Z,53.30
2018-08-30T16:52:54.392Z,53.50
2018-08-30T16:55:22.623Z,53.50
2018-08-30T16:57:50.712Z,53.30
2018-08-30T17:00:18.825Z,53.20
2018-08-30T17:02:46.923Z,53.10
2018-08-30T17:05:15.012Z,53.10
2018-08-30T17:07:43.138Z,53.10
2018-08-30T17:10:11.239Z,53.10
2018-08-30T17:12:39.332Z,53.10
2018-08-30T17:15:07.455Z,53.10
2018-08-30T17:17:35.597Z,53.00
2018-08-30T17:20:05.007Z,53.10
2018-08-30T18:04:28.167Z,54.20
2018-08-30T18:06:56.346Z,54.50
2018-08-30T18:09:24.485Z,54.00
2018-08-30T18:11:52.647Z,54.50
2018-08-30T18:16:48.612Z,54.20
2018-08-30T18:19:16.725Z,54.70
2018-08-30T18:21:44.840Z,54.80
2018-08-30T18:24:12.992Z,55.10
2018-08-30T18:26:41.108Z,55.30
2018-08-30T18:29:09.231Z,55.60
2018-08-30T18:31:37.416Z,55.40
2018-08-30T18:34:05.634Z,56.10
2018-08-30T18:36:33.731Z,56.60
2018-08-30T18:39:01.926Z,57.20
2018-08-30T18:41:31.822Z,57.70
2018-08-30T18:44:00.008Z,58.10
2018-08-30T18:46:28.205Z,58.60
2018-08-30T18:48:56.376Z,58.90
2018-08-30T18:51:26.919Z,59.00
2018-08-30T18:53:55.093Z,59.20
2018-08-30T18:56:23.197Z,59.70
2018-08-30T18:58:51.299Z,60.00
2018-08-30T19:01:19.556Z,61.00
2018-08-30T19:03:47.683Z,61.20
2018-08-30T19:06:15.843Z,61.50
2018-08-30T19:08:43.984Z,61.70
2018-08-30T19:11:12.191Z,61.90
2018-08-30T19:13:40.366Z,62.10
2018-08-30T19:16:13.889Z,62.40
2018-08-30T19:18:47.278Z,62.70
2018-08-30T19:21:15.559Z,63.00
2018-08-30T19:23:43.698Z,63.40
2018-08-30T19:26:11.881Z,63.70
2018-08-30T19:28:39.976Z,64.10
2018-08-30T19:31:08.335Z,64.40
2018-08-30T19:33:36.423Z,64.80
2018-08-30T19:36:09.966Z,65.30
2018-08-30T19:38:38.112Z,65.60
2018-08-30T19:41:11.556Z,65.90
2018-08-30T19:43:40.605Z,66.10
2018-08-30T19:46:08.692Z,66.30
2018-08-30T19:48:36.818Z,66.60
2018-08-30T19:51:05.170Z,67.00
2018-08-30T19:53:33.364Z,67.30
2018-08-30T19:56:01.479Z,67.40
2018-08-30T19:58:29.597Z,67.70
2018-08-30T20:00:57.676Z,67.90
2018-08-30T20:03:25.858Z,68.40
2018-08-30T20:05:54.066Z,68.70
2018-08-30T20:08:22.340Z,69.30
2018-08-30T20:10:50.433Z,69.70
2018-08-30T20:13:18.850Z,70.00
2018-08-30T23:58:02.703Z,75.50
